Report: Add RC1 data
[csit.git] / docs / report / vpp_performance_tests / throughput_speedup_multi_core /
2021-06-02 Tibor FrankReport: Replace links to jobs by links to logs 43/32543/2
2021-06-02 Tibor FrankReport: Configure report 98/32498/12
2021-05-07 Tibor FrankReport: Add 3n-icx 48/32248/2
2021-04-21 Tibor FrankReport: Hide 2n-icx 68/32068/1
2021-04-19 Tibor FrankReport: 2n-icx - fix the order of chapters 26/32026/1
2021-04-16 Tibor FrankReport: Add 2n-icx 08/32008/5
2021-02-16 Tibor FrankReport: Add comp tables for 2n-clx with mellanox NIC 82/31282/6
2021-02-12 Tibor FrankReport: re-group RND tests 48/31248/1
2021-02-11 Tibor FrankReport: Add 2n-clx Mellanox tests and graphs 28/31228/2
2021-02-09 Tibor FrankReport: Add NAT44 tput tests 71/31171/1
2021-02-02 Tibor FrankReport: Add RND tests 94/31094/1
2021-01-26 Tibor FrankReport: Add GENEVE tests 34/30934/3
2021-01-18 Tibor FrankReport: Add data, add 2n-tx2 98/30798/3
2021-01-15 Juraj LinkeŇ°Report: add 2n-tx2 static content 77/30777/2
2021-01-11 Tibor FrankReport: Configuration 79/30679/1
2021-01-11 Tibor FrankReport: Configure report 09/30609/8
2020-12-07 Tibor FrankReport: Add 2n-zn2 turbo boost on/off data 54/30254/4
2020-11-26 Tibor FrankReport: Reorganize the NAT44 chapters 07/30107/2
2020-11-23 Tibor FrankReport: Add 2n-zn2 84/29984/5
2020-11-03 Tibor FrankReport: Fix bugs in NAT44 graphs 33/29733/1
2020-10-30 Tibor FrankReport: Add NATT44 tests 96/29696/3
2020-10-14 Tibor FrankReport: Fix bugs in pdf version 2 46/29446/1
2020-10-13 Tibor FrankReport: Add Data, Fix bugs in pdf version 14/29414/1
2020-10-12 Tibor FrankReport: Add data, fix small bugs 87/29387/1
2020-10-06 Tibor FrankReport: Add 2n-skx NAT44 62/29262/1
2020-10-05 Tibor FrankReport: Add data 58/29258/3
2020-10-05 Tibor FrankReport: Fix NAT44 28/29228/1
2020-10-05 Tibor FrankReport: Add NAT44 12/29112/5
2020-09-29 Tibor FrankReport: Add vpp 2n-clx-cx556a, add dpdk 3n-tsh 43/29143/1
2020-09-24 Tibor FrankReport: replace snat by nat 52/29052/1
2020-09-16 Tibor FrankReport: Add snat44det tests to graphs 81/28881/1
2020-07-09 Tibor FrankReport 2005: Add data, review graphs 20/27820/2
2020-07-08 Tibor FrankReport 2005: Add data, hide dnv, soak, reconf, nfv 14/27814/2
2020-06-17 Tibor FrankReport 2005: Add data, remove plots without data 81/27581/1
2020-06-15 Tibor FrankReport 2005: Clean-up graphs and tables 34/27534/2
2020-03-18 Tibor FrankReport: Clean 3n-hsw, 3n-tsh, 3n-dnv, 2n-dnv graphs 86/25986/1
2020-03-18 Tibor FrankReport: 2n-clx graphs 81/25981/2
2020-03-18 Tibor FrankReport: Add DPDK 3n-skx 69/25969/1
2020-03-17 Tibor FrankReport: Add 2n-skx avf and MRR tests 48/25948/2
2020-03-17 Tibor FrankReport: Add 3n-skx avf tests 34/25934/1
2020-03-16 Tibor FrankReport: Add new tests to graphs and remove old ones 14/25914/3
2020-03-16 Tibor FrankReport: Fix Xn-skx avf-ethip4 graphs 10/25910/3
2020-03-16 Tibor FrankReport: Add 2n-skx ip4 rnd pdr tests 02/25902/2
2020-03-15 Tibor FrankReport: Add 3n-skx NDR 83/25883/1
2020-03-13 Tibor FrankReport: hide 2n-skx NDR data 66/25866/3
2020-03-13 Tibor FrankReport: Add 2n-skx 48/25848/3
2020-03-11 Tibor FrankReport: Add 2n-clx IPv4 RND 02/25802/1
2020-03-05 Tibor FrankReport: Add 2n-clx-xxv710 L2 base-scale tests 82/25682/1
2020-02-26 Tibor FrankReport: Plots 48/25448/2
2020-02-20 Tibor FrankReport: Add 2n-clx latency 3 14/25314/1
2020-02-20 Tibor FrankReport: Add 2n-clx latency 1 97/25297/1
2020-02-20 Tibor FrankReport: Add 2n-clx 79/25279/2
2020-02-12 Tibor FrankReport: Add HDRH Lat for DPDK, part 3 01/25001/1
2020-02-12 Tibor FrankReport: Add HDRH Latency to the static content 79/24979/2
2020-02-11 Tibor FrankReport: Hide skx and clx testbeds 60/24960/3
2020-02-11 Tibor FrankReport: Replace i40e by dpdk 55/24955/1
2020-02-03 Tibor FrankReport: Add VPP 2n-clx cx556a 53/24753/3
2020-01-13 Tibor FrankReport: Move VTS tests from 3n to 2n 95/24295/2
2020-01-10 Tibor FrankReport: Add 2n-clx 67/24267/4
2019-09-13 Tibor FrankReport: Fixes 48/22048/1
2019-09-10 Tibor FrankPAL: Add replacing of data in tables 62/21862/9
2019-09-06 Tibor FrankReport: Add 3n-dnv plots and tables 38/21838/2
2019-09-05 Tibor FrankReport: Add 2n-dnv plots and tables 25/21825/1
2019-09-04 Tibor FrankReport: ixgbe for tsh 46/21746/1
2019-09-02 Tibor FrankReport: Add 3n-tsh 57/21657/1
2019-08-26 Tibor FrankReport: Select tests by name, specifications 92/21392/15
2019-05-09 Tibor FrankReport: Remove Denverton 61/19461/1
2019-05-09 Tibor FrankReport: Remove Ligato 53/19453/2
2019-04-25 Tibor FrankCSIT-1489: Change graphs to display results by suite... 10/19110/8
2019-03-14 Tibor FrankReport: Add Denverton static content 85/18285/1
2019-02-28 Tibor FrankReport: Remove disabled models from specification 94/17894/3
2019-02-26 Tibor FrankCSIT-1440: Re-organize graphs in report 81/17881/1
2019-02-26 Tibor FrankCSIT-1440: Re-organize graphs in report 62/17862/2
2019-02-26 Tibor FrankCSIT-1440: Re-organize graphs in report 43/17843/2
2019-02-19 Tibor FrankReport: Add data 70/17670/5
2019-02-14 Tibor FrankReport: Add data 02/17602/4
2019-02-13 Tibor FrankReport: Check graphs 41/17541/4
2019-02-12 Tibor FrankReport: Add hover info to graph's descriptions 04/17504/2
2019-02-11 Tibor FrankReport: Remove index 66/17466/3
2018-12-03 Tibor FrankCSIT-1374: Split the files with graphs int he Report 97/16297/3
2018-11-26 Tibor FrankCSIT-1351: Add Denverton results to report 82/16182/4
2018-11-21 Tibor FrankReport: Fix the labels 97/16097/1
2018-11-19 Tibor FrankReport: Edit the chapters' titles 18/16018/6
2018-11-12 Tibor FrankCSIT-1350: Add new data to 1810 report 36/15836/4
2018-11-07 Tibor FrankCSIT-1342: Edit the static content for CSIT-1810 report 74/15774/3
2018-11-07 Tibor FrankTemporarily remove Ligato tests 69/15769/2
2018-11-06 Tibor FrankCSIT-1350: Add new data to 1810 report 36/15736/2
2018-11-05 Tibor FrankCSIT-1342: Edit the static content for CSIT-1810 report 14/15714/1
2018-11-05 Tibor FrankCSIT-1342: Edit the static content for CSIT-1810 report 10/15710/1
2018-11-05 Tibor FrankCSIT-1342: Edit the static content for CSIT-1810 report 05/15705/1
2018-10-31 Tibor FrankCSIT-1332: Proposal of new layout of all graphs 55/15155/205
2018-08-15 Maciek Konstantynowiczreport 1807: editorial nit-picking in all graph sections. 64/14264/4
2018-08-08 Tibor FrankCSIT-1230: Improve layout of pdf report 33/14033/1
2018-08-07 Tibor FrankCSIT-1226: Fix bugs in pdf version 23/14023/1
2018-08-07 Tibor FrankCSIT-1208: Add new data to 1807 report 06/14006/5
2018-08-03 Tibor FrankCSIT-1208: Add new data to 1807 report 08/13908/5
2018-08-02 Tibor FrankFIX: Report TSA 90/13890/5
2018-07-30 Tibor FrankCSIT-1197: Add Comparison Across Testbeds to the Report 01/13801/14
2018-07-26 Tibor FrankCSIT-1203: Add parsing of NDRPDR test 18/13618/46
2018-07-19 Tibor FrankCSIT-1196: Add hsw/skx and 2n/3n to the report structure 89/13489/53
next